Time;durP1;ratioP1;P1;durP2;ratioP2;P2;SDS_P1;SDS_P2;PMS_P1;PMS_P2;Temp;Humidity;BMP_temperature;BMP_pressure;BME280_temperature;BME280_humidity;BME280_pressure;Samples;Min_cycle;Max_cycle;Signal;HPM_P1;HPM_P2
2021/03/26 00:00:52;;;;;;;;;;;;;;;20.82;47.83;101577.19;2114192;28;3630;-35
2021/03/26 00:01:52;;;;;;;;;;;;;;;20.81;47.81;101576.34;2113100;28;3008;-33
2021/03/26 00:02:53;;;;;;;;;;;;;;;20.82;47.67;101571.50;2114408;27;2350;-34
2021/03/26 00:03:54;;;;;;;;;;;;;;;20.82;47.74;101574.34;2114013;28;2273;-33
2021/03/26 00:04:55;;;;;;;;;;;;;;;20.83;47.76;101576.84;2109789;28;2103;-32
2021/03/26 00:05:56;;;;;;;;;;;;;;;20.84;47.71;101574.84;2114070;28;1217;-34
2021/03/26 00:06:57;;;;;;;;;;;;;;;20.84;47.88;101574.84;2115341;28;1331;-35
2021/03/26 00:07:57;;;;;;;;;;;;;;;20.84;47.93;101570.00;2115386;28;1219;-31
2021/03/26 00:08:58;;;;;;;;;;;;;;;20.85;48.04;101574.53;2110770;28;3691;-34
2021/03/26 00:09:59;;;;;;;;;;;;;;;20.84;47.97;101572.84;2111758;28;2113;-34
2021/03/26 00:11:00;;;;;;;;;;;;;;;20.85;47.93;101573.69;2115784;28;1045;-32
2021/03/26 00:12:01;;;;;;;;;;;;;;;20.84;47.84;101572.84;2115507;28;1206;-34
2021/03/26 00:13:01;;;;;;;;;;;;;;;20.86;48.05;101566.81;2113652;28;3501;-32
2021/03/26 00:14:02;;;;;;;;;;;;;;;20.85;48.08;101577.38;2114518;28;1944;-35
2021/03/26 00:15:03;;;;;;;;;;;;;;;20.86;47.94;101569.66;2110674;28;2133;-32
2021/03/26 00:16:03;;;;;;;;;;;;;;;20.87;47.97;101568.50;2114957;28;1585;-34
2021/03/26 00:17:04;;;;;;;;;;;;;;;20.86;48.12;101569.66;2113139;28;2185;-32
2021/03/26 00:18:05;;;;;;;;;;;;;;;20.86;48.06;101564.81;2115101;28;1787;-31
2021/03/26 00:19:06;;;;;;;;;;;;;;;20.86;48.01;101572.50;2115361;28;1248;-32
2021/03/26 00:20:07;;;;;;;;;;;;;;;20.85;48.11;101574.53;2110627;28;2187;-33
2021/03/26 00:21:07;;;;;;;;;;;;;;;20.86;48.09;101573.34;2112463;28;1660;-35
2021/03/26 00:22:08;;;;;;;;;;;;;;;20.87;48.01;101582.72;2114562;28;1271;-31
2021/03/26 00:23:09;;;;;;;;;;;;;;;20.86;48.21;101581.03;2115003;28;2033;-33
2021/03/26 00:24:10;;;;;;;;;;;;;;;20.87;48.16;101577.88;2114989;28;1567;-32
2021/03/26 00:25:11;;;;;;;;;;;;;;;20.86;48.15;101576.19;2110145;28;2162;-32
2021/03/26 00:26:11;;;;;;;;;;;;;;;20.87;48.06;101577.03;2114514;28;1341;-32
2021/03/26 00:27:12;;;;;;;;;;;;;;;20.86;48.11;101579.03;2115575;28;1188;-34
2021/03/26 00:28:13;;;;;;;;;;;;;;;20.87;48.09;101579.88;2115127;28;1129;-35
2021/03/26 00:29:14;;;;;;;;;;;;;;;20.86;48.04;101573.34;2115375;28;1380;-33
2021/03/26 00:30:14;;;;;;;;;;;;;;;20.87;48.04;101588.41;2109883;28;2000;-36
2021/03/26 00:31:15;;;;;;;;;;;;;;;20.86;48.16;101581.88;2115051;28;1525;-33
2021/03/26 00:32:17;;;;;;;;;;;;;;;20.86;48.20;101573.34;2115469;28;1458;-34
2021/03/26 00:33:18;;;;;;;;;;;;;;;20.86;48.05;101576.19;2108674;28;1999;-33
2021/03/26 00:34:20;;;;;;;;;;;;;;;20.87;48.18;101574.19;2115422;28;1254;-35
2021/03/26 00:35:21;;;;;;;;;;;;;;;20.87;48.10;101574.19;2108786;28;2315;-33
2021/03/26 00:36:22;;;;;;;;;;;;;;;20.86;48.16;101567.66;2115067;28;4063;-30
2021/03/26 00:37:23;;;;;;;;;;;;;;;20.86;48.19;101564.81;2115275;28;1494;-34
2021/03/26 00:38:24;;;;;;;;;;;;;;;20.86;48.26;101576.19;2115153;28;1367;-32
2021/03/26 00:39:25;;;;;;;;;;;;;;;20.86;48.28;101570.50;2114137;28;1029;-33
2021/03/26 00:40:25;;;;;;;;;;;;;;;20.87;48.22;101563.66;2110502;28;2165;-32
2021/03/26 00:41:26;;;;;;;;;;;;;;;20.87;48.23;101565.66;2109971;28;2164;-32
2021/03/26 00:42:27;;;;;;;;;;;;;;;20.88;48.26;101567.34;2108602;28;1983;-32
2021/03/26 00:43:28;;;;;;;;;;;;;;;20.87;48.32;101563.66;2114409;28;1886;-33
2021/03/26 00:44:29;;;;;;;;;;;;;;;20.87;48.30;101559.97;2121199;28;1629;-32
2021/03/26 00:45:30;;;;;;;;;;;;;;;20.87;48.40;101560.81;2099889;28;2431;-31
2021/03/26 00:46:32;;;;;;;;;;;;;;;20.86;48.42;101561.97;2106087;28;1581;-34
2021/03/26 00:47:33;;;;;;;;;;;;;;;20.87;48.38;101562.81;2115166;28;1314;-29
2021/03/26 00:48:34;;;;;;;;;;;;;;;20.87;48.31;101559.97;2115490;28;1541;-31
2021/03/26 00:49:34;;;;;;;;;;;;;;;20.87;48.37;101557.97;2114854;28;1253;-35
2021/03/26 00:50:35;;;;;;;;;;;;;;;20.87;48.37;101562.81;2113800;28;2154;-32
2021/03/26 00:51:36;;;;;;;;;;;;;;;20.87;48.32;101555.13;2114996;28;1615;-31
2021/03/26 00:52:38;;;;;;;;;;;;;;;20.87;48.46;101563.66;2113507;28;1607;-27
2021/03/26 00:53:39;;;;;;;;;;;;;;;20.87;48.47;101566.50;2114715;28;1635;-29
2021/03/26 00:54:39;;;;;;;;;;;;;;;20.88;48.47;101561.63;2115206;28;1190;-33
2021/03/26 00:55:40;;;;;;;;;;;;;;;20.87;48.41;101566.50;2107523;28;2222;-31
2021/03/26 00:56:41;;;;;;;;;;;;;;;20.88;48.41;101559.63;2111870;28;1356;-31
2021/03/26 00:57:42;;;;;;;;;;;;;;;20.88;48.44;101559.63;2115075;28;1102;-30
2021/03/26 00:58:43;;;;;;;;;;;;;;;20.88;48.20;101559.63;2114925;28;1642;-31
2021/03/26 00:59:44;;;;;;;;;;;;;;;20.88;48.55;101559.63;2115075;28;1781;-37
2021/03/26 01:00:44;;;;;;;;;;;;;;;20.89;48.50;101555.59;2110516;28;2170;-31
2021/03/26 01:01:45;;;;;;;;;;;;;;;20.88;48.38;101553.94;2114617;28;1576;-31
2021/03/26 01:02:46;;;;;;;;;;;;;;;20.89;48.38;101560.47;2108936;28;2369;-37
2021/03/26 01:03:47;;;;;;;;;;;;;;;20.88;48.43;101550.25;2115186;28;1921;-32
2021/03/26 01:04:48;;;;;;;;;;;;;;;20.88;48.38;101558.78;2114868;28;1154;-31
2021/03/26 01:05:49;;;;;;;;;;;;;;;20.88;48.51;101558.78;2112922;28;2189;-28
2021/03/26 01:06:49;;;;;;;;;;;;;;;20.88;48.36;101551.09;2115170;28;1316;-31
2021/03/26 01:07:50;;;;;;;;;;;;;;;20.88;48.37;101558.78;2115261;28;1229;-32
2021/03/26 01:08:51;;;;;;;;;;;;;;;20.88;48.49;101551.09;2115066;28;1536;-30
2021/03/26 01:09:52;;;;;;;;;;;;;;;20.89;48.44;101557.59;2107068;28;4032;-30
2021/03/26 01:10:52;;;;;;;;;;;;;;;20.89;48.51;101557.59;2107444;28;2224;-29
2021/03/26 01:11:53;;;;;;;;;;;;;;;20.88;48.50;101553.94;2115263;28;1645;-30
2021/03/26 01:12:57;;;;;;;;;;;;;;;20.88;48.50;101556.78;2113909;28;1391;-31
2021/03/26 01:13:58;;;;;;;;;;;;;;;20.88;48.61;101559.63;2114377;28;1911;-32
2021/03/26 01:14:58;;;;;;;;;;;;;;;20.89;48.57;101557.59;2114936;28;1371;-27
2021/03/26 01:15:59;;;;;;;;;;;;;;;20.88;48.70;101559.63;2114949;28;2491;-30
2021/03/26 01:17:02;;;;;;;;;;;;;;;20.89;48.52;101558.44;2114838;28;1078;-29
2021/03/26 01:18:03;;;;;;;;;;;;;;;20.89;48.67;101557.59;2115156;28;1650;-31
2021/03/26 01:19:04;;;;;;;;;;;;;;;20.89;48.56;101563.31;2114926;28;1215;-32
2021/03/26 01:20:05;;;;;;;;;;;;;;;20.88;48.55;101556.78;2114487;28;1915;-29
2021/03/26 01:21:06;;;;;;;;;;;;;;;20.90;48.57;101554.44;2114920;28;2371;-32
2021/03/26 01:22:07;;;;;;;;;;;;;;;20.90;48.64;101556.47;2114990;28;1627;-33
2021/03/26 01:23:08;;;;;;;;;;;;;;;20.89;48.69;101560.47;2114872;28;1967;-34
2021/03/26 01:24:08;;;;;;;;;;;;;;;20.89;48.64;101558.44;2120445;28;1684;-28
2021/03/26 01:25:09;;;;;;;;;;;;;;;20.89;48.58;101558.44;2115943;28;2083;-34
2021/03/26 01:26:10;;;;;;;;;;;;;;;20.89;48.70;101552.75;2114321;28;2639;-30
2021/03/26 01:27:11;;;;;;;;;;;;;;;20.90;48.77;101556.47;2115153;28;1711;-33
2021/03/26 01:28:12;;;;;;;;;;;;;;;20.89;48.76;101552.75;2115138;28;1162;-33
2021/03/26 01:29:13;;;;;;;;;;;;;;;20.90;48.84;101556.47;2114572;28;1204;-29
2021/03/26 01:30:14;;;;;;;;;;;;;;;20.89;48.85;101551.91;2111514;28;2169;-31
2021/03/26 01:31:15;;;;;;;;;;;;;;;20.89;48.80;101558.44;2113030;28;1354;-31
2021/03/26 01:32:16;;;;;;;;;;;;;;;20.89;48.97;101552.75;2111634;28;2134;-30
2021/03/26 01:33:16;;;;;;;;;;;;;;;20.88;48.91;101556.78;2113885;28;2183;-32
2021/03/26 01:34:18;;;;;;;;;;;;;;;20.89;49.04;101552.75;2110392;28;2600;-33
2021/03/26 01:35:19;;;;;;;;;;;;;;;20.90;49.07;101557.28;2109845;28;2214;-31
2021/03/26 01:36:20;;;;;;;;;;;;;;;20.91;49.09;101552.44;2112723;28;3721;-32
2021/03/26 01:37:21;;;;;;;;;;;;;;;20.89;49.03;101552.75;2111690;28;2190;-31
2021/03/26 01:38:22;;;;;;;;;;;;;;;20.91;49.08;101555.28;2112628;28;2169;-34
2021/03/26 01:39:22;;;;;;;;;;;;;;;20.90;49.18;101554.44;2115116;28;1702;-34
2021/03/26 01:40:23;;;;;;;;;;;;;;;20.90;49.04;101547.94;2108830;28;2503;-32
2021/03/26 01:41:24;;;;;;;;;;;;;;;20.89;49.07;101549.09;2115946;28;1973;-37
2021/03/26 01:42:25;;;;;;;;;;;;;;;20.89;49.13;101547.06;2112873;28;2531;-32
2021/03/26 01:43:26;;;;;;;;;;;;;;;20.88;49.10;101556.78;2110077;28;2836;-39
2021/03/26 01:44:26;;;;;;;;;;;;;;;20.88;49.13;101548.25;2115609;28;1572;-37
2021/03/26 01:45:27;;;;;;;;;;;;;;;20.89;49.08;101541.38;2111215;28;2201;-33
2021/03/26 01:46:28;;;;;;;;;;;;;;;20.88;49.10;101542.56;2115830;28;2244;-32
2021/03/26 01:47:29;;;;;;;;;;;;;;;20.89;49.17;101552.75;2115546;28;1501;-32
2021/03/26 01:48:31;;;;;;;;;;;;;;;20.89;49.04;101543.38;2114977;28;2042;-30
2021/03/26 01:49:32;;;;;;;;;;;;;;;20.89;49.24;101541.38;2110014;28;2200;-31
2021/03/26 01:50:34;;;;;;;;;;;;;;;20.89;49.25;101540.53;2108137;28;2281;-33
2021/03/26 01:51:35;;;;;;;;;;;;;;;20.88;49.12;101542.56;2110693;28;2129;-31
2021/03/26 01:52:36;;;;;;;;;;;;;;;20.90;49.28;101547.94;2113601;28;2143;-29
2021/03/26 01:53:38;;;;;;;;;;;;;;;20.89;49.30;101540.53;2113449;28;1428;-32
2021/03/26 01:54:39;;;;;;;;;;;;;;;20.89;49.26;101540.53;2111770;28;2249;-32
2021/03/26 01:55:40;;;;;;;;;;;;;;;20.89;49.52;101541.38;2113290;28;2223;-31
2021/03/26 01:56:40;;;;;;;;;;;;;;;20.89;49.44;101547.06;2115208;28;2191;-32
2021/03/26 01:57:41;;;;;;;;;;;;;;;20.91;49.72;101543.91;2112165;28;2171;-31
2021/03/26 01:59:00;;;;;;;;;;;;;;;20.91;49.79;101549.59;2112763;28;2222;-33
2021/03/26 02:00:01;;;;;;;;;;;;;;;20.90;49.85;101545.91;2115550;28;1112;-31
2021/03/26 02:01:02;;;;;;;;;;;;;;;20.90;nan;101543.06;2111512;28;2364;-38
2021/03/26 02:02:03;;;;;;;;;;;;;;;20.91;49.91;101543.91;2115407;28;1837;-33
2021/03/26 02:03:04;;;;;;;;;;;;;;;20.90;49.89;101547.94;2113067;28;2102;-30
2021/03/26 02:04:05;;;;;;;;;;;;;;;20.90;49.81;101547.94;2110406;28;2209;-30
2021/03/26 02:05:06;;;;;;;;;;;;;;;20.89;49.94;101541.38;2116645;28;1434;-32
2021/03/26 02:06:07;;;;;;;;;;;;;;;20.91;50.17;101544.72;2114569;28;1671;-32
2021/03/26 02:07:08;;;;;;;;;;;;;;;20.90;50.07;101543.06;2108480;28;2238;-30
2021/03/26 02:08:08;;;;;;;;;;;;;;;20.89;50.08;101547.06;2111914;28;2187;-32
2021/03/26 02:09:09;;;;;;;;;;;;;;;20.89;50.00;101538.53;2114667;28;3792;-32
2021/03/26 02:10:10;;;;;;;;;;;;;;;20.90;50.09;101540.22;2115237;28;2085;-31
2021/03/26 02:11:14;;;;;;;;;;;;;;;20.89;50.51;101538.53;2115979;28;1169;-30
2021/03/26 02:12:15;;;;;;;;;;;;;;;20.91;50.65;101543.91;2116260;28;1999;-33
2021/03/26 02:13:16;;;;;;;;;;;;;;;20.93;50.76;101543.59;2111711;28;2505;-28
2021/03/26 02:14:17;;;;;;;;;;;;;;;20.93;51.01;101526.50;2116435;28;1348;-31
2021/03/26 02:15:18;;;;;;;;;;;;;;;20.93;50.54;101540.72;2114109;28;2153;-33
2021/03/26 02:16:18;;;;;;;;;;;;;;;20.93;50.86;101535.88;2112636;28;2165;-29
2021/03/26 02:17:19;;;;;;;;;;;;;;;20.93;50.65;101535.03;2116653;28;1676;-32
2021/03/26 02:18:20;;;;;;;;;;;;;;;20.93;50.62;101533.03;2113710;28;2174;-30
2021/03/26 02:19:21;;;;;;;;;;;;;;;20.93;50.79;101543.59;2115773;28;2322;-28
2021/03/26 02:20:22;;;;;;;;;;;;;;;20.93;50.65;101540.72;2116639;28;1440;-31
2021/03/26 02:21:23;;;;;;;;;;;;;;;20.93;50.80;101540.72;2109993;28;2082;-32
2021/03/26 02:22:24;;;;;;;;;;;;;;;20.93;50.75;101540.72;2108804;27;3090;-31
2021/03/26 02:23:25;;;;;;;;;;;;;;;20.93;50.74;101546.41;2115166;28;1917;-29
2021/03/26 02:24:25;;;;;;;;;;;;;;;20.94;50.81;101548.09;2114047;28;2087;-31
2021/03/26 02:25:26;;;;;;;;;;;;;;;20.94;50.69;101539.56;2115522;28;1122;-31
2021/03/26 02:26:27;;;;;;;;;;;;;;;20.94;50.86;101545.25;2112861;28;1654;-30
2021/03/26 02:27:28;;;;;;;;;;;;;;;20.94;50.82;101548.09;2110935;28;2221;-31
2021/03/26 02:28:29;;;;;;;;;;;;;;;20.95;50.75;101552.59;2112313;28;2159;-32
2021/03/26 02:29:31;;;;;;;;;;;;;;;20.95;50.96;101556.28;2114515;28;1057;-32
2021/03/26 02:30:32;;;;;;;;;;;;;;;20.94;50.96;101539.56;2111340;28;2321;-32
2021/03/26 02:31:33;;;;;;;;;;;;;;;20.95;51.00;101544.91;2111135;28;1497;-31
2021/03/26 02:32:35;;;;;;;;;;;;;;;20.95;50.91;101541.22;2116085;28;1487;-29
2021/03/26 02:33:40;;;;;;;;;;;;;;;20.95;51.12;101544.91;2111090;28;2383;-29
2021/03/26 02:34:41;;;;;;;;;;;;;;;20.96;51.11;101545.75;2115669;28;1254;-31
2021/03/26 02:35:42;;;;;;;;;;;;;;;20.96;51.18;101540.06;2114641;28;2186;-32
2021/03/26 02:36:44;;;;;;;;;;;;;;;20.96;51.03;101535.19;2113817;28;2251;-29
2021/03/26 02:37:45;;;;;;;;;;;;;;;20.96;51.17;101537.22;2115276;28;1974;-34
2021/03/26 02:38:46;;;;;;;;;;;;;;;20.96;50.98;101532.34;2114992;28;2306;-31
2021/03/26 02:39:46;;;;;;;;;;;;;;;20.96;51.01;101528.69;2110596;28;2144;-30
2021/03/26 02:40:47;;;;;;;;;;;;;;;20.96;51.09;101534.38;2109104;28;2332;-32
2021/03/26 02:41:48;;;;;;;;;;;;;;;20.94;51.00;101523.31;2115369;28;1494;-30
2021/03/26 02:42:49;;;;;;;;;;;;;;;20.95;50.97;101530.69;2115475;28;2313;-33
2021/03/26 02:43:50;;;;;;;;;;;;;;;20.95;51.01;101529.84;2108297;28;2177;-30
2021/03/26 02:44:50;;;;;;;;;;;;;;;20.95;50.87;101527.00;2114396;28;1984;-35
2021/03/26 02:45:51;;;;;;;;;;;;;;;20.95;50.81;101530.69;2114723;28;2090;-34
2021/03/26 02:46:52;;;;;;;;;;;;;;;20.95;50.99;101529.84;2116034;28;1372;-32
2021/03/26 02:47:53;;;;;;;;;;;;;;;20.96;50.78;101531.53;2113712;28;2221;-34
2021/03/26 02:48:54;;;;;;;;;;;;;;;20.95;50.77;101527.00;2109614;28;2051;-29
2021/03/26 02:49:55;;;;;;;;;;;;;;;20.94;50.72;101534.69;2115360;28;1844;-35
2021/03/26 02:50:56;;;;;;;;;;;;;;;20.94;50.86;101531.84;2109960;28;2185;-30
2021/03/26 02:51:59;;;;;;;;;;;;;;;20.95;50.85;101538.38;2115670;28;2006;-31
2021/03/26 02:53:00;;;;;;;;;;;;;;;20.95;50.73;101541.22;2116322;28;1277;-33
2021/03/26 02:54:01;;;;;;;;;;;;;;;20.95;50.67;101538.38;2108047;28;2159;-32
2021/03/26 02:55:01;;;;;;;;;;;;;;;20.95;50.78;101539.22;2112203;28;2163;-31
2021/03/26 02:56:02;;;;;;;;;;;;;;;20.94;50.88;101539.56;2115880;28;1476;-34
2021/03/26 02:57:03;;;;;;;;;;;;;;;20.95;50.88;101541.22;2115391;28;2303;-32
2021/03/26 02:58:04;;;;;;;;;;;;;;;20.94;50.91;101546.06;2115903;28;1133;-29
2021/03/26 02:59:07;;;;;;;;;;;;;;;20.95;50.71;101544.06;2109288;28;2224;-32
2021/03/26 03:00:08;;;;;;;;;;;;;;;20.93;50.62;101541.56;2115863;28;2084;-30
2021/03/26 03:01:09;;;;;;;;;;;;;;;20.94;50.73;101542.41;2115671;28;1633;-29
2021/03/26 03:02:10;;;;;;;;;;;;;;;20.93;50.51;101544.41;2112044;28;2235;-31
2021/03/26 03:03:11;;;;;;;;;;;;;;;20.93;50.64;101546.41;2115887;28;1174;-29
2021/03/26 03:04:14;;;;;;;;;;;;;;;20.93;50.61;101541.56;2115405;28;2270;-33
2021/03/26 03:05:14;;;;;;;;;;;;;;;20.93;50.62;101541.56;2115114;28;1977;-29
2021/03/26 03:06:17;;;;;;;;;;;;;;;20.94;50.42;101545.25;2114399;28;2250;-30
2021/03/26 03:07:18;;;;;;;;;;;;;;;20.93;50.51;101546.41;2112265;28;2114;-31
2021/03/26 03:08:18;;;;;;;;;;;;;;;20.94;50.49;101542.41;2114696;28;4291;-30
2021/03/26 03:09:19;;;;;;;;;;;;;;;20.94;50.45;101545.25;2115139;28;2100;-29
2021/03/26 03:10:20;;;;;;;;;;;;;;;20.94;50.46;101539.56;2109556;28;2171;-29
2021/03/26 03:11:23;;;;;;;;;;;;;;;20.92;50.31;101539.88;2114757;28;1484;-31
2021/03/26 03:12:24;;;;;;;;;;;;;;;20.93;50.43;101537.88;2113597;28;2195;-30
2021/03/26 03:13:25;;;;;;;;;;;;;;;20.93;50.33;101532.19;2108312;28;2113;-33
2021/03/26 03:14:26;;;;;;;;;;;;;;;20.92;50.33;101539.88;2109171;28;2076;-31
2021/03/26 03:15:26;;;;;;;;;;;;;;;20.93;50.41;101537.88;2113689;28;2488;-30
2021/03/26 03:16:27;;;;;;;;;;;;;;;20.93;50.33;101537.88;2113705;28;1670;-29
2021/03/26 03:17:28;;;;;;;;;;;;;;;20.92;50.25;101537.03;2114195;28;2082;-30
2021/03/26 03:18:29;;;;;;;;;;;;;;;20.93;50.21;101540.72;2111507;28;2317;-30
2021/03/26 03:19:31;;;;;;;;;;;;;;;20.91;50.20;101527.66;2115736;28;1622;-32
2021/03/26 03:20:32;;;;;;;;;;;;;;;20.90;50.17;101534.53;2116058;28;1448;-28
2021/03/26 03:21:34;;;;;;;;;;;;;;;20.93;50.29;101535.03;2115386;28;2453;-32
2021/03/26 03:22:35;;;;;;;;;;;;;;;20.91;50.14;101533.34;2114673;28;2084;-30
2021/03/26 03:23:35;;;;;;;;;;;;;;;20.91;50.26;101536.19;2110233;28;1937;-33
2021/03/26 03:24:36;;;;;;;;;;;;;;;20.91;50.26;101533.34;2109457;28;2192;-31
2021/03/26 03:25:37;;;;;;;;;;;;;;;20.91;50.24;101535.38;2113194;28;2086;-31
2021/03/26 03:26:38;;;;;;;;;;;;;;;20.91;50.31;101530.50;2112746;28;1590;-31
2021/03/26 03:27:39;;;;;;;;;;;;;;;20.91;50.07;101533.34;2108819;28;1944;-28
2021/03/26 03:28:40;;;;;;;;;;;;;;;20.92;50.14;101531.34;2111145;28;2101;-32
2021/03/26 03:29:40;;;;;;;;;;;;;;;20.91;50.16;101532.53;2115075;28;1857;-33
2021/03/26 03:30:41;;;;;;;;;;;;;;;20.91;50.10;101532.53;2113616;28;2333;-34
2021/03/26 03:31:42;;;;;;;;;;;;;;;20.91;50.24;101524.81;2107911;28;2136;-29
2021/03/26 03:32:43;;;;;;;;;;;;;;;20.91;50.12;101524.81;2115878;28;1212;-32
2021/03/26 03:33:44;;;;;;;;;;;;;;;20.92;50.17;101522.81;2111830;28;2126;-34
2021/03/26 03:34:45;;;;;;;;;;;;;;;20.92;50.23;101522.81;2115476;28;2438;-34
2021/03/26 03:35:46;;;;;;;;;;;;;;;20.94;50.13;101525.31;2111640;28;1197;-30
2021/03/26 03:36:47;;;;;;;;;;;;;;;20.93;50.27;101529.34;2114889;28;4292;-31
2021/03/26 03:37:48;;;;;;;;;;;;;;;20.91;50.25;101527.66;2114297;28;1655;-30
2021/03/26 03:38:49;;;;;;;;;;;;;;;20.92;50.28;101525.66;2115726;28;1738;-32
2021/03/26 03:39:54;;;;;;;;;;;;;;;20.94;50.19;101525.31;2112654;28;2132;-31
2021/03/26 03:40:55;;;;;;;;;;;;;;;20.92;50.23;101522.81;2112023;28;2134;-32
2021/03/26 03:41:56;;;;;;;;;;;;;;;20.93;50.20;101532.19;2114632;28;2136;-29
2021/03/26 03:42:56;;;;;;;;;;;;;;;20.91;50.10;101521.97;2115546;28;1447;-30
2021/03/26 03:43:57;;;;;;;;;;;;;;;20.93;50.30;101523.66;2113714;28;2214;-32
2021/03/26 03:44:58;;;;;;;;;;;;;;;20.93;50.11;101526.50;2115699;28;1420;-32
2021/03/26 03:45:59;;;;;;;;;;;;;;;20.92;50.14;101519.97;2115510;28;1289;-31
2021/03/26 03:46:59;;;;;;;;;;;;;;;20.93;50.12;101523.66;2114031;28;2148;-32
2021/03/26 03:48:00;;;;;;;;;;;;;;;20.93;50.24;101520.81;2114969;28;2138;-30
2021/03/26 03:49:01;;;;;;;;;;;;;;;20.93;50.22;101517.97;2115782;28;1185;-31
2021/03/26 03:50:02;;;;;;;;;;;;;;;20.93;50.11;101526.50;2115776;28;1479;-28
2021/03/26 03:51:03;;;;;;;;;;;;;;;20.93;50.25;101530.19;2114763;28;1913;-30
2021/03/26 03:52:04;;;;;;;;;;;;;;;20.93;50.28;101524.50;2111850;28;2159;-33
2021/03/26 03:53:04;;;;;;;;;;;;;;;20.93;50.08;101526.50;2111889;28;2166;-33
2021/03/26 03:54:05;;;;;;;;;;;;;;;20.92;50.23;101528.50;2113588;28;2317;-33
2021/03/26 03:55:06;;;;;;;;;;;;;;;20.93;50.24;101526.50;2115204;28;1798;-30
2021/03/26 03:56:07;;;;;;;;;;;;;;;20.93;50.09;101526.50;2114909;28;1302;-32
2021/03/26 03:57:07;;;;;;;;;;;;;;;20.93;50.18;101530.19;2114215;28;2307;-29
2021/03/26 03:58:08;;;;;;;;;;;;;;;20.94;50.06;101519.63;2113832;28;2220;-33
2021/03/26 03:59:09;;;;;;;;;;;;;;;20.94;50.15;101522.47;2115336;28;1979;-30
2021/03/26 04:00:17;;;;;;;;;;;;;;;20.93;50.05;101520.81;2116017;28;1260;-33
2021/03/26 04:01:17;;;;;;;;;;;;;;;20.94;50.23;101519.63;2113036;28;2218;-35
2021/03/26 04:02:18;;;;;;;;;;;;;;;20.94;50.15;101522.47;2113216;28;2053;-32
2021/03/26 04:03:19;;;;;;;;;;;;;;;20.94;50.21;101513.94;2110922;28;3864;-31
2021/03/26 04:04:21;;;;;;;;;;;;;;;20.94;50.08;101513.94;2115172;28;1898;-35
2021/03/26 04:05:22;;;;;;;;;;;;;;;20.94;50.19;101517.63;2115528;28;1242;-33
2021/03/26 04:06:23;;;;;;;;;;;;;;;20.95;50.19;101521.31;2113538;28;2256;-34
2021/03/26 04:07:24;;;;;;;;;;;;;;;20.94;50.11;101516.78;2110476;28;2123;-32
2021/03/26 04:08:25;;;;;;;;;;;;;;;20.94;50.15;101517.63;2113736;28;2026;-29
2021/03/26 04:09:26;;;;;;;;;;;;;;;20.93;50.16;101515.13;2111009;28;3932;-32
2021/03/26 04:10:26;;;;;;;;;;;;;;;20.94;50.33;101513.94;2114618;28;2150;-32
2021/03/26 04:11:26;;;;;;;;;;;;;;;20.93;50.00;101521.66;2114608;28;1354;-32
2021/03/26 04:12:27;;;;;;;;;;;;;;;20.95;50.16;101524.16;2112374;28;2296;-31
2021/03/26 04:13:28;;;;;;;;;;;;;;;20.94;50.10;101522.47;2110878;28;2292;-28
2021/03/26 04:14:29;;;;;;;;;;;;;;;20.94;50.04;101526.16;2115340;28;1959;-30
2021/03/26 04:15:29;;;;;;;;;;;;;;;20.94;50.13;101522.47;2113122;28;2354;-35
2021/03/26 04:16:30;;;;;;;;;;;;;;;20.93;50.08;101518.81;2110892;28;2810;-29
2021/03/26 04:17:31;;;;;;;;;;;;;;;20.93;50.09;101530.19;2113671;28;2120;-32
2021/03/26 04:18:33;;;;;;;;;;;;;;;20.94;50.09;101525.31;2109674;28;2039;-32
2021/03/26 04:19:34;;;;;;;;;;;;;;;20.93;50.16;101530.19;2112660;28;1591;-31
2021/03/26 04:20:35;;;;;;;;;;;;;;;20.93;49.97;101524.50;2113985;28;1240;-33
2021/03/26 04:21:36;;;;;;;;;;;;;;;20.94;49.94;101525.31;2115764;28;1137;-33
2021/03/26 04:22:36;;;;;;;;;;;;;;;20.93;50.05;101520.81;2112903;28;2131;-29
2021/03/26 04:23:37;;;;;;;;;;;;;;;20.93;50.11;101527.34;2115368;28;1142;-32
2021/03/26 04:24:39;;;;;;;;;;;;;;;20.93;50.06;101523.66;2115598;28;1984;-31
2021/03/26 04:25:40;;;;;;;;;;;;;;;20.93;50.11;101530.19;2112051;28;2130;-32
2021/03/26 04:26:41;;;;;;;;;;;;;;;20.93;50.09;101527.34;2110603;28;1410;-30
2021/03/26 04:27:41;;;;;;;;;;;;;;;20.93;50.05;101529.34;2110119;28;2215;-33
2021/03/26 04:28:42;;;;;;;;;;;;;;;20.93;49.96;101524.50;2115602;28;1428;-32
2021/03/26 04:29:43;;;;;;;;;;;;;;;20.93;50.08;101530.19;2115675;28;1181;-31
2021/03/26 04:30:54;;;;;;;;;;;;;;;20.93;49.96;101532.19;2115559;28;1670;-31
2021/03/26 04:31:55;;;;;;;;;;;;;;;20.93;50.10;101532.19;2115324;28;1470;-33
2021/03/26 04:32:56;;;;;;;;;;;;;;;20.93;50.01;101532.19;2112516;28;2186;-33
2021/03/26 04:33:57;;;;;;;;;;;;;;;20.93;50.07;101526.50;2115482;28;1226;-32
2021/03/26 04:34:58;;;;;;;;;;;;;;;20.93;50.02;101526.50;2115584;28;1134;-35
2021/03/26 04:35:59;;;;;;;;;;;;;;;20.93;50.05;101538.72;2113501;28;2293;-28
2021/03/26 04:36:59;;;;;;;;;;;;;;;20.93;49.92;101532.19;2113583;28;3940;-37
2021/03/26 04:38:00;;;;;;;;;;;;;;;20.93;49.95;101535.03;2112111;28;2182;-35
2021/03/26 04:39:01;;;;;;;;;;;;;;;20.93;49.82;101526.50;2114777;28;1867;-31
2021/03/26 04:40:02;;;;;;;;;;;;;;;20.93;50.05;101535.88;2115024;28;2292;-31
2021/03/26 04:41:02;;;;;;;;;;;;;;;20.92;50.02;101531.34;2111915;28;2662;-31
2021/03/26 04:42:03;;;;;;;;;;;;;;;20.93;49.95;101532.19;2114788;28;1927;-30
2021/03/26 04:43:04;;;;;;;;;;;;;;;20.92;49.80;101534.19;2111237;28;1495;-29
2021/03/26 04:44:04;;;;;;;;;;;;;;;20.93;49.93;101535.03;2113510;28;2100;-32
2021/03/26 04:45:05;;;;;;;;;;;;;;;20.91;49.80;101539.03;2110796;28;2065;-35
2021/03/26 04:46:06;;;;;;;;;;;;;;;20.93;49.89;101543.59;2111844;28;2519;-31
2021/03/26 04:47:07;;;;;;;;;;;;;;;20.93;49.76;101537.88;2115198;28;1638;-29
2021/03/26 04:48:08;;;;;;;;;;;;;;;20.91;49.90;101547.56;2115318;28;1203;-33
2021/03/26 04:49:09;;;;;;;;;;;;;;;20.92;49.77;101539.88;2114632;28;1712;-30
2021/03/26 04:50:10;;;;;;;;;;;;;;;20.91;49.70;101547.56;2113530;28;2134;-30
2021/03/26 04:51:11;;;;;;;;;;;;;;;20.92;49.94;101545.56;2111415;28;1369;-33
2021/03/26 04:52:11;;;;;;;;;;;;;;;20.91;49.87;101549.59;2115072;28;1842;-32
2021/03/26 04:53:12;;;;;;;;;;;;;;;20.91;49.73;101544.72;2111648;28;2126;-33
2021/03/26 04:54:13;;;;;;;;;;;;;;;20.92;49.87;101554.09;2115138;28;1084;-31
2021/03/26 04:55:14;;;;;;;;;;;;;;;20.91;49.82;101553.25;2109491;28;2187;-35
2021/03/26 04:56:15;;;;;;;;;;;;;;;20.93;49.74;101557.81;2110838;28;1358;-32
2021/03/26 04:57:16;;;;;;;;;;;;;;;20.91;49.69;101553.25;2115506;28;1100;-33
2021/03/26 04:58:16;;;;;;;;;;;;;;;20.91;49.79;101556.09;2115280;28;1186;-32
2021/03/26 04:59:17;;;;;;;;;;;;;;;20.91;49.85;101553.25;2110214;28;2160;-31
2021/03/26 05:00:18;;;;;;;;;;;;;;;20.91;49.79;101555.28;2114308;28;2083;-32
2021/03/26 05:01:19;;;;;;;;;;;;;;;20.92;49.90;101551.25;2109911;28;1703;-30
2021/03/26 05:02:20;;;;;;;;;;;;;;;20.91;49.71;101550.41;2115487;28;1135;-28
2021/03/26 05:03:22;;;;;;;;;;;;;;;20.91;49.82;101556.09;2114742;28;1885;-31
2021/03/26 05:04:25;;;;;;;;;;;;;;;20.92;49.82;101551.25;2115175;28;1977;-33
2021/03/26 05:05:26;;;;;;;;;;;;;;;20.91;49.77;101556.09;2113943;28;2176;-32
2021/03/26 05:06:26;;;;;;;;;;;;;;;20.91;49.76;101561.81;2111122;28;1208;-31
2021/03/26 05:07:27;;;;;;;;;;;;;;;20.92;49.70;101556.94;2116046;28;1248;-29
2021/03/26 05:08:28;;;;;;;;;;;;;;;20.91;49.86;101555.28;2116660;28;2003;-35
2021/03/26 05:09:29;;;;;;;;;;;;;;;20.91;49.89;101561.81;2115196;28;1542;-34
2021/03/26 05:10:29;;;;;;;;;;;;;;;20.92;49.78;101562.63;2115306;28;2146;-30
2021/03/26 05:11:30;;;;;;;;;;;;;;;20.91;49.70;101555.28;2112388;28;2270;-32
2021/03/26 05:12:31;;;;;;;;;;;;;;;20.91;49.88;101564.63;2117081;28;1145;-33
2021/03/26 05:13:32;;;;;;;;;;;;;;;20.92;49.89;101565.47;2116930;28;1181;-32
2021/03/26 05:14:33;;;;;;;;;;;;;;;20.93;49.71;101572.03;2116822;28;1249;-29
2021/03/26 05:15:34;;;;;;;;;;;;;;;20.92;49.67;101565.47;2114792;28;2217;-31
2021/03/26 05:16:35;;;;;;;;;;;;;;;20.91;49.85;101564.63;2116802;28;2605;-29
2021/03/26 05:17:35;;;;;;;;;;;;;;;20.91;49.82;101567.50;2116954;28;1381;-31
2021/03/26 05:18:36;;;;;;;;;;;;;;;20.91;49.87;101566.66;2113729;28;2071;-31